MWI312 MMSD-KSFO
Flight info
| Callsign | MWI312 |
|---|---|
| Flight time | N/A |
| Altitude | 36000 |
| Route | ANEGO1B ANEGO UL312 SQN/N0454F380 UL312 ALMUN DCT ZONKY DCT EIREE DCT IKAYE DCT STOKD DCT SERFR SERFR4 |
| Aircraft | B738/M-SDE2E3FGHIRVWY/LB1 |
Departure
| Time | 2026-04-22 14:31 |
|---|---|
| Airport | Los Cabos International Airport (MMSD) |
Arrival
| Time | N/A |
|---|---|
| Airport | San Francisco International Airport (KSFO) |
| Time | Latitude | Longitude | Altitude | Speed | Heading |
|---|---|---|---|---|---|
| 2026-04-22 14:02 | 23.15639 | -109.71774 | 366 ft | 0 kts | 85° |
| 2026-04-22 14:20 | 23.15637 | -109.71787 | 367 ft | 3 kts | 82° |
| 2026-04-22 14:21 | 23.15640 | -109.71824 | 366 ft | 3 kts | 132° |
| 2026-04-22 14:21 | 23.15655 | -109.71835 | 366 ft | 3 kts | 167° |
| 2026-04-22 14:22 | 23.15672 | -109.71838 | 368 ft | 1 kts | 174° |
| 2026-04-22 14:25 | 23.15667 | -109.71837 | 366 ft | 2 kts | 174° |
| 2026-04-22 14:25 | 23.15632 | -109.71841 | 368 ft | 8 kts | 206° |
| 2026-04-22 14:26 | 23.15610 | -109.71878 | 369 ft | 10 kts | 248° |
| 2026-04-22 14:26 | 23.15555 | -109.71909 | 364 ft | 10 kts | 176° |
| 2026-04-22 14:26 | 23.15476 | -109.71899 | 364 ft | 13 kts | 174° |
| 2026-04-22 14:26 | 23.15335 | -109.71884 | 361 ft | 18 kts | 174° |
| 2026-04-22 14:27 | 23.15246 | -109.71874 | 362 ft | 20 kts | 174° |
| 2026-04-22 14:27 | 23.15041 | -109.71850 | 356 ft | 24 kts | 173° |
| 2026-04-22 14:27 | 23.14872 | -109.71831 | 354 ft | 24 kts | 174° |
| 2026-04-22 14:27 | 23.14763 | -109.71818 | 348 ft | 23 kts | 174° |
| 2026-04-22 14:28 | 23.14557 | -109.71795 | 338 ft | 22 kts | 173° |
| 2026-04-22 14:28 | 23.14455 | -109.71782 | 337 ft | 22 kts | 173° |
| 2026-04-22 14:28 | 23.14307 | -109.71764 | 334 ft | 21 kts | 174° |
| 2026-04-22 14:28 | 23.14164 | -109.71750 | 331 ft | 20 kts | 175° |
| 2026-04-22 14:29 | 23.14024 | -109.71736 | 326 ft | 20 kts | 174° |
| 2026-04-22 14:29 | 23.13939 | -109.71784 | 326 ft | 15 kts | 260° |
| 2026-04-22 14:29 | 23.13929 | -109.71894 | 328 ft | 14 kts | 267° |
| 2026-04-22 14:29 | 23.13983 | -109.71938 | 328 ft | 10 kts | 359° |
| 2026-04-22 14:30 | 23.14008 | -109.71940 | 328 ft | 0 kts | 355° |
| 2026-04-22 14:30 | 23.14061 | -109.71945 | 330 ft | 33 kts | 355° |
| 2026-04-22 14:30 | 23.14530 | -109.71999 | 341 ft | 101 kts | 354° |
| 2026-04-22 14:30 | 23.15419 | -109.72101 | 363 ft | 157 kts | 353° |
| 2026-04-22 14:31 | 23.16607 | -109.72272 | 768 ft | 176 kts | 351° |
| 2026-04-22 14:31 | 23.17839 | -109.72455 | 1538 ft | 181 kts | 353° |
| 2026-04-22 14:31 | 23.19087 | -109.72582 | 2359 ft | 182 kts | 356° |
| 2026-04-22 14:31 | 23.20421 | -109.72723 | 2823 ft | 205 kts | 355° |
| 2026-04-22 14:32 | 23.21881 | -109.72877 | 3319 ft | 216 kts | 355° |
| 2026-04-22 14:32 | 23.23454 | -109.73045 | 3571 ft | 238 kts | 354° |
| 2026-04-22 14:32 | 23.25188 | -109.73237 | 3781 ft | 264 kts | 354° |
| 2026-04-22 14:32 | 23.27064 | -109.73445 | 4356 ft | 275 kts | 353° |
| 2026-04-22 14:33 | 23.28977 | -109.73657 | 5191 ft | 277 kts | 352° |
| 2026-04-22 14:33 | 23.30915 | -109.73871 | 5938 ft | 284 kts | 352° |
| 2026-04-22 14:33 | 23.32903 | -109.74092 | 6643 ft | 289 kts | 352° |
| 2026-04-22 14:33 | 23.34848 | -109.74605 | 7346 ft | 288 kts | 329° |
| 2026-04-22 14:34 | 23.36393 | -109.75919 | 8129 ft | 281 kts | 306° |
| 2026-04-22 14:34 | 23.37409 | -109.77707 | 8890 ft | 277 kts | 291° |
| 2026-04-22 14:34 | 23.38217 | -109.79623 | 9645 ft | 280 kts | 290° |
| 2026-04-22 14:34 | 23.39006 | -109.81575 | 10322 ft | 286 kts | 289° |
| 2026-04-22 14:35 | 23.39833 | -109.83634 | 10518 ft | 308 kts | 290° |
| 2026-04-22 14:35 | 23.40725 | -109.85845 | 10703 ft | 331 kts | 290° |
| 2026-04-22 14:35 | 23.41686 | -109.88210 | 10858 ft | 351 kts | 291° |
| 2026-04-22 14:35 | 23.42699 | -109.90687 | 11263 ft | 362 kts | 291° |
| 2026-04-22 14:36 | 23.43736 | -109.93203 | 11877 ft | 365 kts | 291° |
| 2026-04-22 14:36 | 23.44777 | -109.95726 | 12529 ft | 366 kts | 292° |
| 2026-04-22 14:36 | 23.45826 | -109.98269 | 13155 ft | 369 kts | 292° |
| 2026-04-22 14:36 | 23.46882 | -110.00830 | 13712 ft | 372 kts | 292° |
| 2026-04-22 14:37 | 23.47946 | -110.03416 | 14248 ft | 376 kts | 292° |
| 2026-04-22 14:37 | 23.49016 | -110.06018 | 14753 ft | 378 kts | 292° |
| 2026-04-22 14:37 | 23.50091 | -110.08635 | 15280 ft | 380 kts | 292° |
| 2026-04-22 14:37 | 23.51170 | -110.11264 | 15794 ft | 382 kts | 292° |
| 2026-04-22 14:38 | 23.52258 | -110.13913 | 16288 ft | 384 kts | 292° |
| 2026-04-22 14:38 | 23.53370 | -110.16577 | 16771 ft | 387 kts | 295° |
| 2026-04-22 14:38 | 23.54905 | -110.18971 | 17214 ft | 395 kts | 310° |
| 2026-04-22 14:38 | 23.56857 | -110.21093 | 17716 ft | 398 kts | 313° |
| 2026-04-22 14:39 | 23.58850 | -110.23200 | 18155 ft | 401 kts | 313° |
| 2026-04-22 14:39 | 23.60864 | -110.25329 | 18544 ft | 403 kts | 313° |
| 2026-04-22 14:39 | 23.62879 | -110.27474 | 18916 ft | 406 kts | 312° |
| 2026-04-22 14:40 | 23.66911 | -110.31813 | 19695 ft | 409 kts | 312° |
| 2026-04-22 14:40 | 23.68934 | -110.34005 | 20068 ft | 411 kts | 312° |
| 2026-04-22 14:40 | 23.70964 | -110.36209 | 20425 ft | 413 kts | 313° |
| 2026-04-22 14:40 | 23.73007 | -110.38429 | 20794 ft | 415 kts | 313° |
| 2026-04-22 14:41 | 23.75057 | -110.40658 | 21144 ft | 417 kts | 313° |
| 2026-04-22 14:41 | 23.77115 | -110.42897 | 21495 ft | 419 kts | 313° |
| 2026-04-22 14:41 | 23.79186 | -110.45150 | 21834 ft | 421 kts | 313° |
| 2026-04-22 14:41 | 23.81261 | -110.47410 | 22163 ft | 423 kts | 313° |
| 2026-04-22 14:42 | 23.83347 | -110.49682 | 22490 ft | 425 kts | 313° |
| 2026-04-22 14:42 | 23.85443 | -110.51965 | 22815 ft | 426 kts | 313° |
| 2026-04-22 14:42 | 23.87549 | -110.54260 | 23126 ft | 428 kts | 313° |
| 2026-04-22 14:42 | 23.89659 | -110.56556 | 23430 ft | 430 kts | 314° |
| 2026-04-22 14:43 | 23.91873 | -110.58782 | 23715 ft | 433 kts | 317° |
| 2026-04-22 14:43 | 23.94160 | -110.60920 | 23985 ft | 434 kts | 318° |
| 2026-04-22 14:43 | 23.96482 | -110.63030 | 24276 ft | 434 kts | 318° |
| 2026-04-22 14:43 | 23.98809 | -110.65136 | 24547 ft | 435 kts | 318° |
| 2026-04-22 14:44 | 24.01132 | -110.67248 | 24812 ft | 435 kts | 318° |
| 2026-04-22 14:44 | 24.03461 | -110.69382 | 25071 ft | 436 kts | 317° |
| 2026-04-22 14:44 | 24.05784 | -110.71525 | 25331 ft | 437 kts | 317° |
| 2026-04-22 14:44 | 24.08110 | -110.73681 | 25563 ft | 438 kts | 317° |
| 2026-04-22 14:45 | 24.10439 | -110.75846 | 25803 ft | 439 kts | 317° |
| 2026-04-22 14:45 | 24.12766 | -110.78012 | 26065 ft | 440 kts | 317° |
| 2026-04-22 14:45 | 24.15100 | -110.80188 | 26323 ft | 440 kts | 317° |
| 2026-04-22 14:45 | 24.17435 | -110.82365 | 26565 ft | 441 kts | 317° |
| 2026-04-22 14:46 | 24.19775 | -110.84548 | 26802 ft | 442 kts | 317° |
| 2026-04-22 14:46 | 24.22116 | -110.86732 | 27044 ft | 443 kts | 317° |
| 2026-04-22 14:46 | 24.24466 | -110.88926 | 27289 ft | 444 kts | 317° |
| 2026-04-22 14:46 | 24.26820 | -110.91125 | 27514 ft | 444 kts | 317° |
| 2026-04-22 14:47 | 24.29174 | -110.93325 | 27723 ft | 446 kts | 317° |
| 2026-04-22 14:47 | 24.31505 | -110.95503 | 27932 ft | 447 kts | 317° |
| 2026-04-22 14:47 | 24.33872 | -110.97717 | 28160 ft | 447 kts | 316° |
| 2026-04-22 14:47 | 24.36235 | -110.99928 | 28468 ft | 446 kts | 316° |
| 2026-04-22 14:48 | 24.38587 | -111.02129 | 28822 ft | 443 kts | 316° |
| 2026-04-22 14:48 | 24.40923 | -111.04316 | 29217 ft | 440 kts | 316° |
| 2026-04-22 14:48 | 24.43248 | -111.06495 | 29586 ft | 438 kts | 316° |
| 2026-04-22 14:48 | 24.45565 | -111.08667 | 29923 ft | 437 kts | 316° |
| 2026-04-22 14:49 | 24.47874 | -111.10834 | 30228 ft | 436 kts | 316° |
| 2026-04-22 14:49 | 24.50180 | -111.12998 | 30523 ft | 435 kts | 316° |
| 2026-04-22 14:49 | 24.52467 | -111.15146 | 30845 ft | 432 kts | 316° |
| 2026-04-22 14:49 | 24.54749 | -111.17290 | 31154 ft | 431 kts | 316° |
| 2026-04-22 14:50 | 24.57023 | -111.19428 | 31433 ft | 430 kts | 316° |
| 2026-04-22 14:50 | 24.59294 | -111.21563 | 31732 ft | 429 kts | 316° |
| 2026-04-22 14:50 | 24.61556 | -111.23692 | 32056 ft | 427 kts | 316° |
| 2026-04-22 14:50 | 24.63805 | -111.25809 | 32377 ft | 425 kts | 316° |
| 2026-04-22 14:51 | 24.66048 | -111.27921 | 32676 ft | 424 kts | 316° |
| 2026-04-22 14:51 | 24.68287 | -111.30032 | 32962 ft | 423 kts | 316° |
| 2026-04-22 14:51 | 24.70515 | -111.32132 | 33274 ft | 422 kts | 316° |
| 2026-04-22 14:51 | 24.72740 | -111.34232 | 33570 ft | 420 kts | 316° |
| 2026-04-22 14:52 | 24.74956 | -111.36323 | 33852 ft | 419 kts | 316° |
| 2026-04-22 14:52 | 24.77166 | -111.38410 | 34130 ft | 418 kts | 316° |
| 2026-04-22 14:52 | 24.79371 | -111.40492 | 34383 ft | 417 kts | 316° |
| 2026-04-22 14:52 | 24.81565 | -111.42566 | 34617 ft | 416 kts | 316° |
| 2026-04-22 14:53 | 24.83757 | -111.44639 | 34832 ft | 415 kts | 316° |
| 2026-04-22 14:53 | 24.85947 | -111.46711 | 35038 ft | 415 kts | 316° |
| 2026-04-22 14:53 | 24.88134 | -111.48781 | 35276 ft | 414 kts | 316° |
| 2026-04-22 14:53 | 24.90314 | -111.50846 | 35518 ft | 412 kts | 316° |
| 2026-04-22 14:54 | 24.92485 | -111.52902 | 35738 ft | 411 kts | 316° |
| 2026-04-22 14:54 | 24.94655 | -111.54959 | 35931 ft | 411 kts | 316° |
| 2026-04-22 14:54 | 24.96821 | -111.57013 | 36074 ft | 411 kts | 316° |
| 2026-04-22 14:54 | 24.98989 | -111.59071 | 36073 ft | 411 kts | 316° |
| 2026-04-22 14:55 | 25.03287 | -111.63152 | 36093 ft | 410 kts | 316° |
| 2026-04-22 14:55 | 25.07605 | -111.67256 | 36093 ft | 409 kts | 316° |
| 2026-04-22 14:56 | 25.11920 | -111.71361 | 36093 ft | 409 kts | 316° |
| 2026-04-22 14:56 | 25.16258 | -111.75493 | 36089 ft | 409 kts | 316° |
| 2026-04-22 14:57 | 25.20566 | -111.79599 | 36092 ft | 409 kts | 315° |
| 2026-04-22 14:57 | 25.24868 | -111.83705 | 36087 ft | 409 kts | 315° |
| 2026-04-22 14:58 | 25.29147 | -111.87790 | 36090 ft | 409 kts | 315° |
| 2026-04-22 14:58 | 25.33755 | -111.91577 | 36095 ft | 411 kts | 321° |
| 2026-04-22 14:59 | 25.38454 | -111.95121 | 36091 ft | 412 kts | 321° |
| 2026-04-22 14:59 | 25.43214 | -111.98719 | 36087 ft | 412 kts | 321° |
| 2026-04-22 15:00 | 25.47908 | -112.02288 | 36088 ft | 412 kts | 321° |
| 2026-04-22 15:00 | 25.52624 | -112.05887 | 36090 ft | 412 kts | 321° |
| 2026-04-22 15:01 | 25.57368 | -112.09513 | 36088 ft | 412 kts | 321° |
| 2026-04-22 15:01 | 25.62081 | -112.13120 | 36089 ft | 412 kts | 321° |
| 2026-04-22 15:02 | 25.66793 | -112.16729 | 36090 ft | 411 kts | 321° |
| 2026-04-22 15:02 | 25.71498 | -112.20336 | 36086 ft | 411 kts | 321° |
| 2026-04-22 15:03 | 25.76205 | -112.23948 | 36089 ft | 411 kts | 321° |
| 2026-04-22 15:03 | 25.80903 | -112.27558 | 36090 ft | 411 kts | 321° |
| 2026-04-22 15:04 | 25.85598 | -112.31168 | 36089 ft | 410 kts | 321° |
| 2026-04-22 15:04 | 25.90293 | -112.34781 | 36085 ft | 410 kts | 320° |
| 2026-04-22 15:05 | 25.94976 | -112.38390 | 36090 ft | 410 kts | 320° |
| 2026-04-22 15:05 | 25.99655 | -112.41998 | 36094 ft | 409 kts | 320° |
| 2026-04-22 15:06 | 26.04331 | -112.45608 | 36089 ft | 409 kts | 320° |
| 2026-04-22 15:06 | 26.09002 | -112.49217 | 36083 ft | 409 kts | 320° |
| 2026-04-22 15:07 | 26.12887 | -112.52223 | 36083 ft | 409 kts | 320° |
| 2026-04-22 15:07 | 26.17582 | -112.55857 | 36085 ft | 408 kts | 320° |
| 2026-04-22 15:08 | 26.22246 | -112.59472 | 36083 ft | 408 kts | 320° |
| 2026-04-22 15:08 | 26.26872 | -112.63060 | 36081 ft | 408 kts | 320° |
| 2026-04-22 15:09 | 26.31526 | -112.66674 | 36083 ft | 407 kts | 320° |
| 2026-04-22 15:09 | 26.36177 | -112.70288 | 36095 ft | 407 kts | 320° |
| 2026-04-22 15:10 | 26.40827 | -112.73907 | 36086 ft | 408 kts | 320° |
| 2026-04-22 15:10 | 26.45480 | -112.77530 | 36092 ft | 408 kts | 320° |
| 2026-04-22 15:11 | 26.50127 | -112.81153 | 36100 ft | 408 kts | 320° |
| 2026-04-22 15:11 | 26.54777 | -112.84782 | 36099 ft | 408 kts | 320° |
| 2026-04-22 15:12 | 26.59434 | -112.88420 | 36099 ft | 408 kts | 320° |
| 2026-04-22 15:12 | 26.64084 | -112.92056 | 36102 ft | 408 kts | 320° |
| 2026-04-22 15:13 | 26.68728 | -112.95691 | 36115 ft | 407 kts | 320° |
| 2026-04-22 15:13 | 26.73346 | -112.99309 | 36104 ft | 407 kts | 320° |
| 2026-04-22 15:14 | 26.77980 | -113.02943 | 36114 ft | 407 kts | 319° |
| 2026-04-22 15:14 | 26.82609 | -113.06578 | 36109 ft | 406 kts | 319° |
| 2026-04-22 15:15 | 26.87228 | -113.10207 | 36112 ft | 405 kts | 319° |
| 2026-04-22 15:15 | 26.91832 | -113.13829 | 36111 ft | 404 kts | 319° |
| 2026-04-22 15:16 | 26.96458 | -113.17472 | 36110 ft | 403 kts | 319° |
| 2026-04-22 15:16 | 27.01041 | -113.21085 | 36109 ft | 403 kts | 319° |
| 2026-04-22 15:17 | 27.05627 | -113.24704 | 36121 ft | 402 kts | 319° |
| 2026-04-22 15:17 | 27.10205 | -113.28322 | 36114 ft | 403 kts | 319° |
| 2026-04-22 15:18 | 27.14786 | -113.31944 | 36114 ft | 403 kts | 319° |
| 2026-04-22 15:18 | 27.19366 | -113.35570 | 36115 ft | 403 kts | 319° |
| 2026-04-22 15:19 | 27.23950 | -113.39202 | 36118 ft | 403 kts | 319° |
| 2026-04-22 15:19 | 27.28537 | -113.42840 | 36122 ft | 404 kts | 319° |
| 2026-04-22 15:20 | 27.33101 | -113.46464 | 36132 ft | 404 kts | 319° |
| 2026-04-22 15:20 | 27.37691 | -113.50112 | 36120 ft | 404 kts | 319° |
| 2026-04-22 15:21 | 27.42284 | -113.53767 | 36125 ft | 405 kts | 319° |
| 2026-04-22 15:21 | 27.46884 | -113.57431 | 36128 ft | 405 kts | 319° |
| 2026-04-22 15:22 | 27.51486 | -113.61100 | 36126 ft | 405 kts | 319° |
| 2026-04-22 15:22 | 27.56089 | -113.64774 | 36126 ft | 405 kts | 318° |
| 2026-04-22 15:23 | 27.60696 | -113.68455 | 36125 ft | 405 kts | 318° |
| 2026-04-22 15:23 | 27.65261 | -113.72105 | 36127 ft | 405 kts | 318° |
| 2026-04-22 15:24 | 27.69856 | -113.75784 | 36129 ft | 404 kts | 318° |
| 2026-04-22 15:24 | 27.74440 | -113.79458 | 36124 ft | 404 kts | 318° |
| 2026-04-22 15:25 | 27.79025 | -113.83138 | 36123 ft | 404 kts | 318° |
| 2026-04-22 15:25 | 27.83597 | -113.86810 | 36123 ft | 403 kts | 318° |
| 2026-04-22 15:26 | 27.88173 | -113.90490 | 36123 ft | 403 kts | 318° |
| 2026-04-22 15:26 | 27.92737 | -113.94164 | 36125 ft | 403 kts | 318° |
| 2026-04-22 15:27 | 27.97301 | -113.97842 | 36121 ft | 402 kts | 318° |
| 2026-04-22 15:27 | 28.01859 | -114.01518 | 36120 ft | 402 kts | 318° |
| 2026-04-22 15:28 | 28.06481 | -114.05109 | 36120 ft | 404 kts | 320° |
| 2026-04-22 15:28 | 28.11190 | -114.08588 | 36121 ft | 404 kts | 320° |
| 2026-04-22 15:29 | 28.15900 | -114.12070 | 36122 ft | 404 kts | 320° |
| 2026-04-22 15:30 | 28.22936 | -114.17316 | 36114 ft | 403 kts | 319° |
| 2026-04-22 15:30 | 28.27623 | -114.20827 | 36114 ft | 403 kts | 319° |
| 2026-04-22 15:31 | 28.32275 | -114.24317 | 36118 ft | 403 kts | 319° |
| 2026-04-22 15:31 | 28.36957 | -114.27834 | 36115 ft | 403 kts | 319° |
| 2026-04-22 15:32 | 28.41642 | -114.31356 | 36116 ft | 404 kts | 319° |
| 2026-04-22 15:32 | 28.46324 | -114.34880 | 36120 ft | 404 kts | 319° |
| 2026-04-22 15:33 | 28.51006 | -114.38408 | 36119 ft | 404 kts | 319° |
| 2026-04-22 15:33 | 28.55689 | -114.41940 | 36120 ft | 404 kts | 319° |
| 2026-04-22 15:34 | 28.60372 | -114.45476 | 36107 ft | 404 kts | 319° |
| 2026-04-22 15:34 | 28.65052 | -114.49013 | 36129 ft | 404 kts | 319° |
| 2026-04-22 15:35 | 28.68934 | -114.51950 | 36114 ft | 404 kts | 319° |
| 2026-04-22 15:35 | 28.74403 | -114.56093 | 36112 ft | 404 kts | 319° |
| 2026-04-22 15:36 | 28.79075 | -114.59636 | 36112 ft | 404 kts | 319° |
| 2026-04-22 15:36 | 28.83751 | -114.63186 | 36114 ft | 404 kts | 319° |
| 2026-04-22 15:37 | 28.88396 | -114.66717 | 36112 ft | 404 kts | 319° |
| 2026-04-22 15:37 | 28.93075 | -114.70276 | 36116 ft | 404 kts | 319° |
| 2026-04-22 15:38 | 28.97744 | -114.73833 | 36115 ft | 403 kts | 319° |
| 2026-04-22 15:38 | 29.04742 | -114.79170 | 36110 ft | 403 kts | 319° |
| 2026-04-22 15:39 | 29.09410 | -114.82736 | 36118 ft | 403 kts | 319° |
| 2026-04-22 15:39 | 29.14071 | -114.86300 | 36114 ft | 403 kts | 319° |
| 2026-04-22 15:40 | 29.18734 | -114.89870 | 36117 ft | 403 kts | 319° |
| 2026-04-22 15:40 | 29.23396 | -114.93442 | 36115 ft | 403 kts | 319° |
| 2026-04-22 15:41 | 29.28050 | -114.97013 | 36116 ft | 403 kts | 319° |
| 2026-04-22 15:41 | 29.32712 | -115.00593 | 36114 ft | 403 kts | 319° |
| 2026-04-22 15:42 | 29.37370 | -115.04174 | 36116 ft | 403 kts | 319° |
| 2026-04-22 15:42 | 29.42024 | -115.07757 | 36117 ft | 403 kts | 319° |
| 2026-04-22 15:43 | 29.46676 | -115.11343 | 36121 ft | 403 kts | 319° |
| 2026-04-22 15:43 | 29.51330 | -115.14933 | 36116 ft | 403 kts | 319° |
| 2026-04-22 15:44 | 29.55983 | -115.18527 | 36123 ft | 403 kts | 319° |
| 2026-04-22 15:44 | 29.60637 | -115.22126 | 36124 ft | 403 kts | 319° |
| 2026-04-22 15:45 | 29.65285 | -115.25724 | 36115 ft | 403 kts | 319° |
| 2026-04-22 15:45 | 29.69893 | -115.29294 | 36119 ft | 401 kts | 319° |
| 2026-04-22 15:46 | 29.74529 | -115.32892 | 36131 ft | 402 kts | 319° |
| 2026-04-22 15:46 | 29.79158 | -115.36487 | 36131 ft | 402 kts | 318° |
| 2026-04-22 15:47 | 29.83788 | -115.40089 | 36132 ft | 402 kts | 318° |
| 2026-04-22 15:47 | 29.88430 | -115.43702 | 36129 ft | 402 kts | 318° |
| 2026-04-22 15:48 | 29.93067 | -115.47316 | 36137 ft | 402 kts | 318° |
| 2026-04-22 15:48 | 29.97701 | -115.50932 | 36133 ft | 402 kts | 318° |
| 2026-04-22 15:49 | 30.01557 | -115.53944 | 36135 ft | 403 kts | 318° |
| 2026-04-22 15:49 | 30.06195 | -115.57572 | 36135 ft | 403 kts | 318° |
| 2026-04-22 15:50 | 30.11596 | -115.61800 | 36130 ft | 403 kts | 318° |
| 2026-04-22 15:50 | 30.15484 | -115.64848 | 36130 ft | 403 kts | 318° |
| 2026-04-22 15:51 | 30.20114 | -115.68480 | 36140 ft | 402 kts | 318° |
| 2026-04-22 15:51 | 30.24744 | -115.72119 | 36140 ft | 402 kts | 318° |
| 2026-04-22 15:52 | 30.29366 | -115.75754 | 36138 ft | 402 kts | 318° |
| 2026-04-22 15:52 | 30.33992 | -115.79396 | 36137 ft | 402 kts | 318° |
| 2026-04-22 15:53 | 30.38620 | -115.83045 | 36141 ft | 402 kts | 317° |
| 2026-04-22 15:53 | 30.43215 | -115.86672 | 36142 ft | 402 kts | 317° |
| 2026-04-22 15:54 | 30.47834 | -115.90323 | 36147 ft | 401 kts | 317° |
| 2026-04-22 15:54 | 30.52447 | -115.93971 | 36148 ft | 401 kts | 317° |
| 2026-04-22 15:55 | 30.57179 | -115.97435 | 36148 ft | 405 kts | 321° |
| 2026-04-22 15:55 | 30.62095 | -116.00640 | 36151 ft | 405 kts | 322° |
| 2026-04-22 15:56 | 30.67020 | -116.03830 | 36144 ft | 405 kts | 322° |
| 2026-04-22 15:56 | 30.71924 | -116.07033 | 36145 ft | 404 kts | 322° |
| 2026-04-22 15:57 | 30.76820 | -116.10249 | 36152 ft | 404 kts | 321° |
| 2026-04-22 15:57 | 30.81703 | -116.13466 | 36153 ft | 403 kts | 321° |
| 2026-04-22 15:58 | 30.86583 | -116.16685 | 36154 ft | 403 kts | 321° |
| 2026-04-22 15:58 | 30.91463 | -116.19908 | 36155 ft | 403 kts | 321° |
| 2026-04-22 15:59 | 30.96314 | -116.23115 | 36155 ft | 403 kts | 321° |
| 2026-04-22 15:59 | 31.01194 | -116.26345 | 36150 ft | 403 kts | 321° |
| 2026-04-22 16:00 | 31.06072 | -116.29577 | 36159 ft | 403 kts | 321° |
| 2026-04-22 16:00 | 31.10951 | -116.32815 | 36157 ft | 403 kts | 321° |
| 2026-04-22 16:01 | 31.15822 | -116.36050 | 36158 ft | 403 kts | 321° |
| 2026-04-22 16:01 | 31.20697 | -116.39292 | 36156 ft | 403 kts | 321° |
| 2026-04-22 16:02 | 31.25563 | -116.42531 | 36159 ft | 402 kts | 321° |
| 2026-04-22 16:02 | 31.30425 | -116.45773 | 36160 ft | 402 kts | 321° |
| 2026-04-22 16:03 | 31.35277 | -116.49011 | 36158 ft | 401 kts | 321° |
| 2026-04-22 16:03 | 31.40124 | -116.52249 | 36160 ft | 401 kts | 321° |
| 2026-04-22 16:04 | 31.44964 | -116.55488 | 36166 ft | 400 kts | 321° |
| 2026-04-22 16:04 | 31.49796 | -116.58725 | 36162 ft | 400 kts | 321° |
| 2026-04-22 16:05 | 31.54624 | -116.61965 | 36174 ft | 401 kts | 321° |
| 2026-04-22 16:05 | 31.59442 | -116.65201 | 36184 ft | 402 kts | 321° |
| 2026-04-22 16:06 | 31.64342 | -116.68496 | 36168 ft | 404 kts | 321° |
| 2026-04-22 16:06 | 31.69183 | -116.71752 | 36167 ft | 404 kts | 321° |
| 2026-04-22 16:07 | 31.74050 | -116.75031 | 36171 ft | 403 kts | 321° |
| 2026-04-22 16:07 | 31.78909 | -116.78309 | 36170 ft | 403 kts | 321° |
| 2026-04-22 16:08 | 31.83772 | -116.81594 | 36168 ft | 402 kts | 321° |
| 2026-04-22 16:08 | 31.88623 | -116.84875 | 36175 ft | 401 kts | 321° |
| 2026-04-22 16:09 | 31.93460 | -116.88152 | 36166 ft | 401 kts | 321° |
| 2026-04-22 16:09 | 31.98289 | -116.91426 | 36175 ft | 400 kts | 321° |
| 2026-04-22 16:10 | 32.03116 | -116.94703 | 36169 ft | 400 kts | 321° |
| 2026-04-22 16:10 | 32.07941 | -116.97983 | 36171 ft | 400 kts | 321° |
| 2026-04-22 16:11 | 32.12762 | -117.01265 | 36173 ft | 400 kts | 321° |
| 2026-04-22 16:11 | 32.17563 | -117.04536 | 36184 ft | 401 kts | 321° |
| 2026-04-22 16:12 | 32.22390 | -117.07830 | 36193 ft | 401 kts | 321° |
| 2026-04-22 16:12 | 32.27223 | -117.11132 | 36199 ft | 402 kts | 321° |
| 2026-04-22 16:13 | 32.32071 | -117.14448 | 36199 ft | 402 kts | 320° |
| 2026-04-22 16:13 | 32.36923 | -117.17771 | 36205 ft | 403 kts | 320° |
| 2026-04-22 16:14 | 32.41774 | -117.21098 | 36207 ft | 404 kts | 320° |